Ana Sayfa
METAR-TAF:

METAR-TAF

Havaalanları :

N'Djamena, Çad

Enlem: 12-08N, Boylam: 015-02E, yükseklik: 295 m

Güncel hava durumu gözlemi

Rapor saat 19:00 UTC de 3 saat ve 14 dakika önce yapıldı.
Rüzgar kuzey/kuzeybatıdan 6 kt, batı/kuzeybatı ve kuzey arasında değişken
Sıcaklık 24°C
Nem 14%
Basınç 1012 hPa
Görüş mesafesi 10 km veya daha fazla
1500 m altında bulut yok ve kümülonimbus yok

METAR: FTTJ 211900Z 33006KT 300V360 CAVOK 24/M05 Q1012 NOSIG

Saat: 23:14 (22:14 UTC)

Tahmin

Rapor saat 17:15 UTC de 4 saat ve 59 dakika önce yapıldı.
Ayın 21'si saat 18 UTC'den ayın 22'si saat 24 UTC'ye kadar geçerli Tahmin
Rüzgar kuzey/kuzeybatıdan 6 kt
Geçici
ayın 22'si saat 08 UTC'den ayın 22'si saat 16 UTC'ye kadar
Rüzgar kuzeydoğudan 10 kt
Dönüşüyor
ayın 22'si saat 16 UTC'den ayın 22'si saat 18 UTC'ye kadar
Görüş mesafesi: 4000 m
yaygın toz

TAF: FTTJ 211715Z 2118/2224 34006KT CAVAK TEMPO 2208/2216 04010KT BECMG 2216/2218 4000 DU

4.000'den fazla havaalanı için hava durumu gözlemleri ve tahminleri (METAR ve TAF raporları).

Kullanılabilir istasyonlar harita üzerinde sarı ve kırmızı noktalarla gösterilir.

İstasyonun adını görmek için fareyi noktanın üzerinde gezdirin.

Sonrasında hava gözlem ve tahminlerini görmek için tıklayın.

Haritayı değiştirmek için: yaklaştırmak için siyah artı işaretli yeşil düğmeye ve uzaklaştırmak için de eksi işaretli düğmeye hızla tıklayın; bitişik haritalar için yeşil okları kullanın.


METAR-TAF: